Grindelwald, Switzerland
Current Conditions -  °F | °C
As of 12:50 PM on Friday 24 Oct 2014 (Local Time) from LSMM Reporting Station
Clear Clear  
Wind Chill: 48°   Ceiling: Unl
Heat Index: 48°   Visibility: 6mi
Dew Point: 37°   Wind: 2mph
Humidity: 66%   Direction: NA
Pressure: 30.15"   Gusts: NA
Location:  46.62°N, 8.03°E
Report Text: LSMM 241050Z VRB02KT CAVOK 09/03 Q1021 RMK BLU
Loading
Personal Weather Stations






























Interactive Weather Map
Tropical Storm Tracking
New forecast layout! Learn more

10-Day Weather Forecast

Advertisements
Track Severe Weather on mobile